Harvey, Michigan
Current Conditions -  °F | °C
As of 1:03 PM on Friday 24 Oct 2014 (Local Time) from KSAW Reporting Station
Haze Haze  
Wind Chill: 42°   Ceiling: 100
Heat Index: 46°   Visibility: 3mi
Dew Point: 45°   Wind: 8mph
Humidity: 93%   Direction: 200°SSW
Pressure: 29.93"   Gusts: NA
Location:  46.5095°N, 87.3836°W
Report Text: KSAW 241703Z 20007KT 3SM BR OVC001 08/07 A2993
Loading
Personal Weather Stations






























Interactive Weather Map
Tropical Storm Tracking
New forecast layout! Learn more

10-Day Weather Forecast

Advertisements
Track Severe Weather on mobile